Time;durP1;ratioP1;P1;durP2;ratioP2;P2;SDS_P1;SDS_P2;PMS_P1;PMS_P2;Temp;Humidity;BMP_temperature;BMP_pressure;BME280_temperature;BME280_humidity;BME280_pressure;Samples;Min_cycle;Max_cycle;Signal;HPM_P1;HPM_P2
2022/05/17 00:00:55;;;;;;;20.42;14.52;;;;;;;20.05;76.30;101260.31;5105662;28;20048;-76
2022/05/17 00:03:22;;;;;;;23.27;14.77;;;;;;;20.09;76.64;101257.28;5125273;27;20043;-76
2022/05/17 00:05:48;;;;;;;22.98;15.55;;;;;;;19.85;77.67;101270.78;5126046;27;20100;-76
2022/05/17 00:08:16;;;;;;;23.02;15.57;;;;;;;19.83;77.58;101262.09;5120824;27;20109;-76
2022/05/17 00:10:45;;;;;;;22.67;17.33;;;;;;;19.90;77.90;101270.44;5105027;27;20101;-76
2022/05/17 00:13:13;;;;;;;19.83;16.38;;;;;;;19.98;77.79;101275.13;5121399;27;20444;-76
2022/05/17 00:15:43;;;;;;;22.08;16.73;;;;;;;20.01;77.49;101274.84;5106084;28;20100;-75
2022/05/17 00:18:10;;;;;;;27.40;17.88;;;;;;;20.09;77.59;101273.25;5106428;28;20092;-75
2022/05/17 00:20:38;;;;;;;21.00;15.70;;;;;;;19.99;77.80;101271.50;5109047;28;20051;-75
2022/05/17 00:23:07;;;;;;;26.13;16.55;;;;;;;20.07;77.53;101272.53;5111559;27;20135;-76
2022/05/17 00:25:35;;;;;;;23.73;16.92;;;;;;;19.89;78.55;101272.22;5110291;27;20453;-75
2022/05/17 00:28:04;;;;;;;20.13;16.33;;;;;;;19.90;78.35;101271.28;5110320;27;20055;-76
2022/05/17 00:30:31;;;;;;;24.63;16.92;;;;;;;19.89;78.84;101269.56;5108931;28;20075;-76
2022/05/17 00:32:57;;;;;;;21.58;17.23;;;;;;;19.73;79.74;101277.09;5105348;27;20444;-75
2022/05/17 00:35:23;;;;;;;27.58;17.38;;;;;;;19.69;79.83;101262.41;5103438;28;20471;-75
2022/05/17 00:37:50;;;;;;;25.98;17.52;;;;;;;20.05;78.64;101271.81;5090295;28;20583;-75
2022/05/17 00:40:16;;;;;;;22.30;17.20;;;;;;;20.05;78.20;101268.31;5109790;27;20067;-75
2022/05/17 00:42:43;;;;;;;28.02;18.25;;;;;;;20.19;77.52;101271.50;5110061;27;20042;-75
2022/05/17 00:45:12;;;;;;;25.25;17.92;;;;;;;19.73;79.43;101273.63;5109135;27;20556;-76
2022/05/17 00:47:43;;;;;;;27.95;20.58;;;;;;;19.74;80.36;101264.66;5108030;27;20092;-75
2022/05/17 00:50:22;;;;;;;29.13;19.63;;;;;;;19.91;78.85;101274.78;5116129;27;20384;-75
2022/05/17 00:52:51;;;;;;;26.75;19.92;;;;;;;20.07;78.62;101269.88;5105473;27;20035;-75
2022/05/17 00:55:22;;;;;;;31.25;21.45;;;;;;;19.83;79.50;101269.25;5114986;27;20047;-75
2022/05/17 00:57:54;;;;;;;41.60;22.67;;;;;;;19.94;78.95;101274.53;5097800;28;20075;-75
2022/05/17 01:00:24;;;;;;;27.88;21.17;;;;;;;19.86;79.41;101276.97;5111539;27;20043;-75
2022/05/17 01:02:54;;;;;;;29.33;21.30;;;;;;;19.89;79.73;101276.72;5112694;28;20047;-75
2022/05/17 01:05:24;;;;;;;29.52;21.73;;;;;;;19.84;79.34;101277.06;5112364;28;20112;-75
2022/05/17 01:07:53;;;;;;;37.85;22.77;;;;;;;19.94;79.23;101269.19;5118383;27;20472;-75
2022/05/17 01:10:20;;;;;;;31.73;22.38;;;;;;;19.50;81.64;101279.94;5106862;27;20039;-75
2022/05/17 01:14:57;;;;;;;28.80;20.65;;;;;;;19.60;80.89;101275.56;5112268;27;20060;-75
2022/05/17 01:15:34;;;;;;;32.80;20.95;;;;;;;19.52;81.06;101281.50;5111553;27;20043;-75
2022/05/17 01:18:01;;;;;;;31.00;20.45;;;;;;;19.52;81.40;101284.16;5112055;27;20376;-75
2022/05/17 01:20:28;;;;;;;28.85;20.00;;;;;;;19.91;79.17;101282.78;5110843;28;20039;-75
2022/05/17 01:22:56;;;;;;;26.63;19.40;;;;;;;19.67;79.98;101282.09;5111712;27;20092;-74
2022/05/17 01:25:22;;;;;;;27.20;18.17;;;;;;;18.85;83.87;101289.47;5112037;27;20051;-74
2022/05/17 01:27:54;;;;;;;32.25;20.27;;;;;;;19.03;83.51;101287.19;5111994;27;20055;-74
2022/05/17 01:30:25;;;;;;;29.45;17.70;;;;;;;18.90;84.49;101286.47;5088929;28;20040;-74
2022/05/17 01:32:52;;;;;;;29.80;18.05;;;;;;;19.29;82.38;101285.97;5090453;28;20101;-74
2022/05/17 01:35:19;;;;;;;25.83;17.08;;;;;;;19.11;83.19;101289.22;5110013;27;20047;-74
2022/05/17 01:37:46;;;;;;;27.38;17.35;;;;;;;19.08;83.33;101278.84;5105674;27;20039;-74
2022/05/17 01:40:14;;;;;;;25.42;16.65;;;;;;;18.96;84.23;101285.97;5106890;27;20105;-74
2022/05/17 01:42:40;;;;;;;27.23;16.30;;;;;;;18.32;87.78;101295.34;5109454;27;20044;-74
2022/05/17 01:45:07;;;;;;;26.40;15.82;;;;;;;18.42;87.12;101291.88;5109910;27;20105;-73
2022/05/17 01:47:34;;;;;;;27.25;16.85;;;;;;;18.63;86.04;101289.44;5098821;27;20036;-73
2022/05/17 01:50:00;;;;;;;24.00;15.52;;;;;;;18.77;85.14;101293.69;5089997;28;20101;-74
2022/05/17 01:52:26;;;;;;;25.08;16.38;;;;;;;18.73;85.69;101294.91;5110313;27;20040;-74
2022/05/17 01:54:53;;;;;;;24.17;16.02;;;;;;;18.54;86.54;101299.91;5090738;28;20047;-74
2022/05/17 01:57:20;;;;;;;28.52;18.08;;;;;;;18.48;87.19;101288.75;5091036;28;20093;-74
2022/05/17 01:59:47;;;;;;;27.95;17.60;;;;;;;18.49;87.33;101300.22;5098268;27;20039;-74
2022/05/17 02:02:13;;;;;;;27.75;17.02;;;;;;;18.66;86.27;101293.69;5125167;27;20483;-75
2022/05/17 02:04:39;;;;;;;28.48;18.58;;;;;;;18.67;86.76;101298.00;5122608;27;20088;-74
2022/05/17 02:07:06;;;;;;;30.50;17.90;;;;;;;18.86;85.33;101300.94;5110866;28;20461;-74
2022/05/17 02:09:32;;;;;;;27.58;18.20;;;;;;;19.18;83.61;101304.59;5106929;27;20040;-74
2022/05/17 02:11:59;;;;;;;25.75;18.33;;;;;;;18.78;85.43;101308.66;5109878;27;20040;-76
2022/05/17 02:14:26;;;;;;;29.02;16.77;;;;;;;18.85;85.56;101316.03;5109832;27;20044;-75
2022/05/17 02:16:53;;;;;;;29.63;18.50;;;;;;;18.68;87.07;101308.53;5109225;27;20047;-75
2022/05/17 02:19:20;;;;;;;25.00;17.52;;;;;;;18.61;87.81;101309.97;5107851;28;20104;-75
2022/05/17 02:21:47;;;;;;;22.13;16.55;;;;;;;18.81;86.47;101306.59;5110816;27;20042;-75
2022/05/17 02:24:13;;;;;;;26.00;15.88;;;;;;;18.60;88.00;101305.59;5109771;27;20458;-74
2022/05/17 02:26:40;;;;;;;21.75;15.63;;;;;;;18.80;86.59;101306.75;5092087;27;20051;-74
2022/05/17 02:29:08;;;;;;;24.50;15.65;;;;;;;19.09;85.43;101309.78;5103975;28;20047;-74
2022/05/17 02:31:36;;;;;;;23.27;15.05;;;;;;;19.03;85.50;101311.09;5092279;28;20047;-74
2022/05/17 02:34:02;;;;;;;23.23;16.75;;;;;;;18.71;87.07;101312.75;5108622;27;20048;-74
2022/05/17 02:36:29;;;;;;;23.63;14.68;;;;;;;18.49;87.89;101316.16;5109499;27;20071;-74
2022/05/17 02:38:56;;;;;;;22.55;13.77;;;;;;;18.63;86.89;101317.78;5104166;27;20391;-74
2022/05/17 02:41:23;;;;;;;18.98;13.63;;;;;;;18.53;87.42;101319.47;5107597;27;20097;-74
2022/05/17 02:43:50;;;;;;;16.80;11.48;;;;;;;18.52;86.50;101315.09;5093687;27;20040;-74
2022/05/17 02:46:17;;;;;;;18.17;11.48;;;;;;;18.42;86.82;101323.75;5099429;28;20059;-74
2022/05/17 02:48:45;;;;;;;13.18;10.68;;;;;;;18.53;85.69;101330.09;5120824;27;20043;-74
2022/05/17 02:51:13;;;;;;;19.45;11.98;;;;;;;18.69;85.43;101322.66;5119697;27;20525;-74
2022/05/17 02:53:40;;;;;;;16.15;11.90;;;;;;;18.65;85.13;101331.81;5111569;27;20100;-74
2022/05/17 02:56:07;;;;;;;19.95;12.13;;;;;;;18.79;84.50;101336.94;5109756;28;20478;-74
2022/05/17 02:58:34;;;;;;;19.80;12.38;;;;;;;18.68;85.51;101340.41;5110314;27;20043;-74
2022/05/17 03:01:00;;;;;;;15.20;12.13;;;;;;;18.86;84.59;101336.34;5108435;27;20036;-74
2022/05/17 03:03:27;;;;;;;16.17;11.80;;;;;;;18.60;85.51;101342.78;5103922;28;20051;-74
2022/05/17 03:05:55;;;;;;;15.90;11.48;;;;;;;18.86;84.32;101341.66;5109546;28;20047;-74
2022/05/17 03:08:21;;;;;;;17.40;11.57;;;;;;;19.07;82.85;101340.97;5107926;27;20353;-74
2022/05/17 03:10:48;;;;;;;13.15;11.00;;;;;;;18.78;85.02;101340.53;5105568;27;20104;-74
2022/05/17 03:13:15;;;;;;;14.98;9.82;;;;;;;18.93;83.17;101345.53;5110199;27;20112;-74
2022/05/17 03:15:42;;;;;;;14.90;10.48;;;;;;;18.75;84.31;101351.41;5109900;27;20099;-74
2022/05/17 03:18:09;;;;;;;15.25;11.13;;;;;;;18.74;84.24;101350.56;5110412;28;20051;-74
2022/05/17 03:20:35;;;;;;;14.10;9.88;;;;;;;18.61;84.82;101363.09;5106475;28;20044;-74
2022/05/17 03:23:03;;;;;;;14.10;10.38;;;;;;;18.98;82.40;101355.81;5108206;27;20069;-75
2022/05/17 03:25:29;;;;;;;19.77;9.05;;;;;;;18.94;82.27;101354.34;5104553;27;20097;-74
2022/05/17 03:27:56;;;;;;;14.25;9.95;;;;;;;18.93;82.13;101366.78;5108926;27;20068;-75
2022/05/17 03:30:23;;;;;;;14.18;8.85;;;;;;;18.87;82.53;101366.41;5108606;27;20044;-74
2022/05/17 03:32:49;;;;;;;11.48;7.93;;;;;;;18.71;82.89;101372.03;5106324;28;20593;-74
2022/05/17 03:35:15;;;;;;;10.15;8.02;;;;;;;18.74;82.36;101368.28;5105949;28;20435;-74
2022/05/17 03:37:42;;;;;;;11.10;8.18;;;;;;;18.90;81.93;101366.19;5109305;27;20419;-74
2022/05/17 03:40:11;;;;;;;13.00;8.77;;;;;;;18.82;81.73;101376.53;5108383;27;20047;-74
2022/05/17 03:42:38;;;;;;;18.60;9.82;;;;;;;18.84;81.37;101374.63;5101233;27;20586;-74
2022/05/17 03:45:06;;;;;;;11.45;8.50;;;;;;;19.00;81.67;101371.63;5089043;28;20465;-74
2022/05/17 03:47:33;;;;;;;12.18;8.57;;;;;;;19.31;79.37;101366.50;5102335;28;20130;-74
2022/05/17 03:49:59;;;;;;;13.07;9.13;;;;;;;19.54;78.26;101371.84;5108103;28;20040;-74
2022/05/17 03:52:26;;;;;;;13.13;10.35;;;;;;;19.15;80.53;101373.09;5107129;27;20081;-74
2022/05/17 03:54:55;;;;;;;15.77;10.07;;;;;;;18.97;80.92;101380.69;5108769;28;20043;-74
2022/05/17 03:57:22;;;;;;;13.38;9.65;;;;;;;18.96;81.72;101376.31;5109435;28;20039;-74
2022/05/17 03:59:49;;;;;;;13.38;10.48;;;;;;;19.04;81.42;101384.56;5104900;28;20092;-74
2022/05/17 04:02:16;;;;;;;16.02;10.18;;;;;;;18.84;82.21;101379.94;5108913;28;20099;-74
2022/05/17 04:04:43;;;;;;;12.35;9.32;;;;;;;19.03;81.27;101388.19;5100359;27;20055;-74
2022/05/17 04:07:09;;;;;;;13.48;8.95;;;;;;;18.89;79.90;101385.72;5109039;27;20059;-74
2022/05/17 04:09:35;;;;;;;13.77;7.75;;;;;;;18.70;80.75;101385.47;5108072;27;20063;-74
2022/05/17 04:12:03;;;;;;;11.02;7.90;;;;;;;18.52;81.78;101387.66;5108849;27;20525;-74
2022/05/17 04:14:31;;;;;;;11.80;7.60;;;;;;;18.27;82.57;101388.59;5108817;28;20047;-75
2022/05/17 04:16:57;;;;;;;11.85;8.05;;;;;;;18.53;81.46;101393.81;5097887;27;20048;-76
2022/05/17 04:19:24;;;;;;;9.00;7.28;;;;;;;18.52;81.12;101392.13;5087774;28;20517;-75
2022/05/17 04:21:50;;;;;;;11.02;7.63;;;;;;;18.68;80.78;101390.03;5101288;27;20097;-75
2022/05/17 04:24:16;;;;;;;9.55;7.30;;;;;;;18.47;81.99;101397.75;5109592;27;20039;-76
2022/05/17 04:26:43;;;;;;;10.25;7.50;;;;;;;18.51;82.06;101395.72;5109058;28;20073;-75
2022/05/17 04:29:10;;;;;;;10.77;7.85;;;;;;;18.57;81.11;101389.97;5108510;27;20523;-75
2022/05/17 04:31:37;;;;;;;12.98;7.40;;;;;;;18.30;82.24;101406.09;5108903;27;20040;-75
2022/05/17 04:34:05;;;;;;;13.60;7.80;;;;;;;18.38;82.64;101396.63;5107781;27;20055;-75
2022/05/17 04:36:33;;;;;;;11.10;7.88;;;;;;;18.59;81.13;101396.03;5108248;27;20127;-75
2022/05/17 04:39:01;;;;;;;13.77;7.85;;;;;;;18.87;79.84;101400.97;5092372;27;20047;-75
2022/05/17 04:41:27;;;;;;;14.07;8.02;;;;;;;18.75;80.14;101401.88;5094117;28;20462;-75
2022/05/17 04:43:53;;;;;;;12.02;8.07;;;;;;;18.75;80.40;101408.03;5103447;28;20457;-75
2022/05/17 04:46:20;;;;;;;10.20;8.27;;;;;;;18.98;79.64;101402.78;5088661;28;20073;-75
2022/05/17 04:48:47;;;;;;;11.20;7.60;;;;;;;19.12;78.98;101402.59;5106510;28;20445;-75
2022/05/17 04:51:14;;;;;;;11.95;8.82;;;;;;;19.24;78.21;101402.50;5097730;27;20483;-75
2022/05/17 04:53:43;;;;;;;11.90;8.63;;;;;;;19.24;78.30;101397.19;5105721;27;20131;-76
2022/05/17 04:56:11;;;;;;;14.80;8.93;;;;;;;19.58;76.67;101394.56;5088706;28;20048;-76
2022/05/17 04:58:38;;;;;;;13.60;9.02;;;;;;;19.46;77.22;101414.16;5099532;28;20495;-76
2022/05/17 05:01:05;;;;;;;15.20;9.38;;;;;;;19.28;77.96;101416.41;5105780;28;21899;-76
2022/05/17 05:03:32;;;;;;;14.75;10.05;;;;;;;18.90;80.13;101420.19;5106884;28;20052;-76
2022/05/17 05:06:00;;;;;;;13.73;9.95;;;;;;;18.79;80.67;101416.63;5108696;28;20055;-76
2022/05/17 05:08:27;;;;;;;13.43;10.15;;;;;;;18.85;80.78;101421.47;5112158;28;20043;-75
2022/05/17 05:10:53;;;;;;;15.27;9.50;;;;;;;19.05;79.88;101426.13;5105694;27;20047;-75
2022/05/17 05:13:21;;;;;;;17.17;10.07;;;;;;;19.33;78.97;101430.16;5091993;27;20040;-75
2022/05/17 05:15:47;;;;;;;17.33;11.07;;;;;;;19.19;79.61;101427.72;5100523;27;20092;-75
2022/05/17 05:18:14;;;;;;;14.57;10.20;;;;;;;19.59;77.91;101431.69;5112038;27;20100;-75
2022/05/17 05:20:42;;;;;;;18.50;12.18;;;;;;;19.26;79.90;101436.94;5106875;27;20048;-75
2022/05/17 05:23:11;;;;;;;17.52;11.23;;;;;;;19.46;78.91;101438.94;5112487;27;20040;-75
2022/05/17 05:25:37;;;;;;;15.98;12.35;;;;;;;19.87;78.54;101435.69;5111576;27;20046;-75
2022/05/17 05:28:06;;;;;;;19.35;12.75;;;;;;;20.12;77.81;101438.06;5111350;27;20056;-75
2022/05/17 05:30:32;;;;;;;21.77;12.52;;;;;;;20.35;77.35;101434.44;5109740;27;20092;-74
2022/05/17 05:32:59;;;;;;;20.08;10.73;;;;;;;20.60;76.32;101438.59;5110864;28;20416;-76
2022/05/17 05:35:26;;;;;;;17.77;10.70;;;;;;;20.54;75.16;101436.44;5093392;28;20580;-75
2022/05/17 05:37:53;;;;;;;18.38;10.82;;;;;;;20.80;74.83;101439.59;5091399;28;20101;-75
2022/05/17 05:40:22;;;;;;;14.73;9.88;;;;;;;20.51;75.23;101443.84;5093917;28;20097;-75
2022/05/17 05:42:50;;;;;;;16.15;10.10;;;;;;;20.73;74.32;101449.09;5108336;27;20076;-76
2022/05/17 05:45:18;;;;;;;16.20;10.25;;;;;;;20.69;74.30;101450.31;5110420;28;20047;-76
2022/05/17 05:47:44;;;;;;;13.80;9.55;;;;;;;20.86;73.06;101450.59;5106371;27;20449;-77
2022/05/17 05:50:11;;;;;;;13.50;10.05;;;;;;;20.79;73.78;101459.22;5111269;27;20051;-76
2022/05/17 05:52:37;;;;;;;12.57;9.88;;;;;;;20.69;73.76;101463.63;5111551;27;20078;-76
2022/05/17 05:55:05;;;;;;;14.85;10.00;;;;;;;20.34;75.22;101458.53;5110273;27;20039;-76
2022/05/17 05:57:32;;;;;;;16.73;10.48;;;;;;;20.54;75.48;101464.91;5100977;28;20048;-76
2022/05/17 05:59:59;;;;;;;13.57;9.95;;;;;;;20.59;75.06;101468.00;5108560;27;20044;-76
2022/05/17 06:02:25;;;;;;;12.77;9.80;;;;;;;20.57;75.03;101464.63;5118114;27;20092;-76
2022/05/17 06:04:52;;;;;;;15.38;10.52;;;;;;;20.61;73.29;101472.25;5093979;28;20048;-76
2022/05/17 06:07:19;;;;;;;15.77;10.18;;;;;;;20.30;75.40;101481.03;5110838;28;20035;-76
2022/05/17 06:09:45;;;;;;;19.38;10.02;;;;;;;20.17;74.86;101481.16;5099504;27;20048;-77
2022/05/17 06:12:12;;;;;;;13.65;9.65;;;;;;;20.36;73.94;101475.25;5103016;27;20043;-76
2022/05/17 06:14:39;;;;;;;16.13;10.13;;;;;;;20.42;73.83;101476.53;5109420;27;20044;-76
2022/05/17 06:17:06;;;;;;;13.68;9.52;;;;;;;20.26;74.83;101490.22;5090312;27;20055;-75
2022/05/17 06:19:33;;;;;;;13.82;9.77;;;;;;;20.30;74.76;101486.38;5106896;27;20069;-76
2022/05/17 06:21:59;;;;;;;14.13;9.82;;;;;;;20.29;74.81;101487.34;5110506;27;20047;-76
2022/05/17 06:24:27;;;;;;;16.58;11.63;;;;;;;20.98;71.49;101479.88;5102590;27;20062;-76
2022/05/17 06:26:54;;;;;;;17.50;11.10;;;;;;;20.59;73.30;101490.19;5093658;28;20042;-76
2022/05/17 06:29:20;;;;;;;19.95;11.23;;;;;;;20.84;72.32;101484.50;5109674;27;20044;-76
2022/05/17 06:31:48;;;;;;;19.63;12.13;;;;;;;20.95;71.97;101489.00;5110769;28;20047;-76
2022/05/17 06:34:14;;;;;;;17.27;12.32;;;;;;;20.86;71.98;101490.59;5108066;28;20574;-76
2022/05/17 06:36:41;;;;;;;15.50;11.75;;;;;;;20.85;72.05;101496.03;5091642;28;20468;-76
2022/05/17 06:39:08;;;;;;;20.73;11.60;;;;;;;21.07;72.56;101495.94;5109684;27;20051;-76
2022/05/17 06:41:34;;;;;;;18.58;12.82;;;;;;;21.35;71.15;101494.50;5094860;28;20043;-76
2022/05/17 06:44:01;;;;;;;21.67;13.23;;;;;;;21.28;70.60;101494.19;5104993;27;20495;-76
2022/05/17 06:46:27;;;;;;;18.52;13.30;;;;;;;21.59;69.71;101494.22;5090912;27;20101;-76
2022/05/17 06:48:55;;;;;;;23.45;13.23;;;;;;;21.56;70.18;101502.50;5106792;27;20100;-76
2022/05/17 06:51:22;;;;;;;19.88;13.35;;;;;;;21.31;71.11;101507.25;5107302;28;20065;-76
2022/05/17 06:53:49;;;;;;;20.77;12.32;;;;;;;21.48;69.59;101504.97;5109243;27;20039;-76
2022/05/17 06:56:16;;;;;;;19.13;12.52;;;;;;;21.00;70.28;101515.25;5100418;28;20119;-76
2022/05/17 06:58:42;;;;;;;21.88;12.65;;;;;;;20.94;71.69;101513.09;5107831;27;20069;-76
2022/05/17 07:01:09;;;;;;;19.33;12.45;;;;;;;20.68;72.15;101518.75;5108175;28;20097;-76
2022/05/17 07:03:35;;;;;;;19.70;12.27;;;;;;;21.09;71.68;101518.00;5109323;27;20062;-76
2022/05/17 07:06:04;;;;;;;19.48;12.27;;;;;;;21.63;69.61;101517.00;5108405;27;20478;-76
2022/05/17 07:08:30;;;;;;;19.30;12.20;;;;;;;22.08;67.63;101521.06;5109797;27;20135;-76
2022/05/17 07:13:40;;;;;;;23.17;12.38;;;;;;;22.10;67.91;101527.09;5109446;27;20113;-76
2022/05/17 07:16:06;;;;;;;19.60;12.95;;;;;;;22.04;67.91;101524.97;5107792;28;20047;-76
2022/05/17 07:18:33;;;;;;;19.73;13.40;;;;;;;22.01;68.04;101524.41;5108478;27;20047;-76
2022/05/17 07:20:59;;;;;;;26.02;14.20;;;;;;;21.50;69.46;101529.72;5107331;27;20112;-76
2022/05/17 07:23:27;;;;;;;21.92;13.30;;;;;;;21.51;69.81;101526.03;5102393;27;20063;-76
2022/05/17 07:25:55;;;;;;;23.23;13.90;;;;;;;21.49;69.91;101523.53;5093996;27;20059;-76
2022/05/17 07:28:23;;;;;;;20.17;14.07;;;;;;;21.68;68.70;101528.13;5096282;27;20057;-76
2022/05/17 07:30:50;;;;;;;21.73;12.93;;;;;;;22.10;67.35;101526.25;5108881;27;20096;-76
2022/05/17 07:33:19;;;;;;;24.45;14.00;;;;;;;22.38;67.87;101530.03;5104190;27;20040;-76
2022/05/17 07:35:46;;;;;;;22.73;13.02;;;;;;;22.60;68.17;101529.81;5099023;27;20601;-76
2022/05/17 07:38:12;;;;;;;20.55;12.65;;;;;;;22.97;67.02;101536.22;5109454;27;20399;-76
2022/05/17 07:40:41;;;;;;;18.77;11.85;;;;;;;22.87;65.28;101530.03;5100269;27;20043;-76
2022/05/17 07:43:08;;;;;;;17.92;12.38;;;;;;;22.78;65.56;101530.84;5092038;27;20050;-76
2022/05/17 07:45:35;;;;;;;23.05;12.30;;;;;;;22.91;64.79;101547.47;5109076;27;20557;-76
2022/05/17 07:48:02;;;;;;;19.13;13.02;;;;;;;22.45;65.03;101545.38;5108426;27;20100;-76
2022/05/17 07:50:28;;;;;;;18.90;13.05;;;;;;;22.27;65.65;101542.53;5108158;27;20113;-76
2022/05/17 07:52:55;;;;;;;20.80;12.95;;;;;;;22.64;64.83;101542.75;5111534;27;20048;-76
2022/05/17 07:55:21;;;;;;;21.45;12.60;;;;;;;22.90;64.37;101544.94;5124220;27;20043;-76
2022/05/17 07:57:49;;;;;;;21.27;13.98;;;;;;;23.50;63.49;101533.13;5130448;27;20575;-76
2022/05/17 08:00:16;;;;;;;19.20;13.25;;;;;;;23.59;62.57;101543.81;5128884;27;20228;-76
2022/05/17 08:02:42;;;;;;;19.85;12.52;;;;;;;23.76;62.77;101544.94;5129794;27;20441;-76
2022/05/17 08:05:10;;;;;;;19.50;13.82;;;;;;;23.55;63.11;101542.41;5117197;27;20480;-76
2022/05/17 08:07:37;;;;;;;21.17;13.25;;;;;;;23.62;62.64;101548.88;5109445;28;20067;-76
2022/05/17 08:10:04;;;;;;;19.10;13.30;;;;;;;23.32;63.97;101550.88;5108765;28;20046;-76
2022/05/17 08:12:30;;;;;;;23.90;14.93;;;;;;;23.55;61.51;101555.81;5109012;28;20036;-76
2022/05/17 08:14:58;;;;;;;21.02;14.27;;;;;;;23.55;63.08;101549.59;5109214;28;20479;-76
2022/05/17 08:17:25;;;;;;;22.73;13.07;;;;;;;23.35;62.33;101551.44;5109127;27;20051;-76
2022/05/17 08:19:52;;;;;;;24.08;12.38;;;;;;;23.50;60.96;101557.22;5108502;27;20096;-76
2022/05/17 08:22:18;;;;;;;19.45;11.93;;;;;;;23.07;62.12;101562.97;5110019;27;20097;-76
2022/05/17 08:27:37;;;;;;;16.85;11.55;;;;;;;23.35;62.31;101556.78;5129535;27;20066;-76
2022/05/17 08:30:09;;;;;;;17.17;12.30;;;;;;;23.06;62.49;101567.47;5128999;27;20183;-76
2022/05/17 08:35:20;;;;;;;20.70;13.60;;;;;;;23.21;62.82;101560.72;5109897;27;20062;-76
2022/05/17 08:37:47;;;;;;;19.88;13.05;;;;;;;23.12;63.32;101561.56;5088616;28;20052;-76
2022/05/17 08:40:20;;;;;;;18.73;12.25;;;;;;;23.13;62.66;101573.94;5116258;27;20095;-76
2022/05/17 08:42:54;;;;;;;24.05;11.98;;;;;;;23.32;62.88;101572.28;5134267;27;20088;-76
2022/05/17 08:45:34;;;;;;;18.38;11.55;;;;;;;23.35;63.97;101563.97;5120273;27;20499;-76
2022/05/17 08:48:02;;;;;;;14.68;10.27;;;;;;;23.33;61.26;101568.59;5112335;27;20678;-76
2022/05/17 08:50:33;;;;;;;15.93;10.63;;;;;;;23.26;62.65;101573.69;5109595;27;20108;-76
2022/05/17 08:52:59;;;;;;;14.48;10.35;;;;;;;23.36;61.68;101561.13;5112957;27;20044;-76
2022/05/17 08:55:29;;;;;;;20.23;11.50;;;;;;;23.53;63.15;101564.97;5118034;27;20118;-76
2022/05/17 08:58:01;;;;;;;14.93;11.40;;;;;;;23.62;61.69;101562.28;5113973;27;20039;-76
2022/05/17 09:00:33;;;;;;;16.15;11.48;;;;;;;24.04;61.75;101556.53;5112119;27;20051;-76
2022/05/17 09:03:02;;;;;;;17.55;11.07;;;;;;;24.26;60.87;101558.88;5113435;27;20047;-76
2022/05/17 09:05:35;;;;;;;16.17;11.07;;;;;;;24.72;59.82;101566.78;5114011;27;20048;-76
2022/05/17 09:08:12;;;;;;;15.77;10.90;;;;;;;24.95;58.88;101569.94;5113762;27;20131;-76
2022/05/17 09:10:40;;;;;;;18.67;11.73;;;;;;;25.15;58.69;101567.94;5128058;27;20452;-76
2022/05/17 09:13:13;;;;;;;15.95;11.48;;;;;;;25.08;57.67;101561.50;5113281;27;20407;-76
2022/05/17 09:15:41;;;;;;;15.13;9.60;;;;;;;25.01;57.65;101576.53;5113356;27;20043;-76
2022/05/17 09:18:10;;;;;;;14.25;10.68;;;;;;;25.05;57.27;101562.69;5112285;27;20047;-76
2022/05/17 09:20:39;;;;;;;19.95;11.77;;;;;;;24.64;58.25;101561.38;5123880;27;20043;-76
2022/05/17 09:23:06;;;;;;;18.83;11.82;;;;;;;24.57;56.81;101565.66;5113528;27;20116;-76
2022/05/17 09:25:47;;;;;;;16.58;11.77;;;;;;;24.50;58.53;101574.44;5113481;27;20047;-76
2022/05/17 09:28:19;;;;;;;19.05;11.85;;;;;;;24.43;57.24;101576.00;5114081;27;20047;-76
2022/05/17 09:30:46;;;;;;;19.70;11.60;;;;;;;25.00;57.98;101578.38;5128473;27;20555;-76
2022/05/17 09:33:16;;;;;;;15.63;10.65;;;;;;;25.15;56.58;101568.81;5133997;27;20413;-76
2022/05/17 09:35:54;;;;;;;15.80;10.50;;;;;;;25.24;56.59;101572.38;5132658;27;20054;-76
2022/05/17 09:38:20;;;;;;;17.70;11.18;;;;;;;24.60;58.01;101570.69;5112448;28;20472;-76
2022/05/17 09:40:50;;;;;;;13.65;9.93;;;;;;;24.19;59.75;101573.84;5112826;27;20043;-76
2022/05/17 09:43:17;;;;;;;14.73;10.32;;;;;;;24.32;58.21;101571.66;5113449;27;20564;-76
2022/05/17 09:45:50;;;;;;;23.58;10.85;;;;;;;24.45;58.76;101565.97;5112550;28;20100;-76
2022/05/17 09:48:30;;;;;;;14.73;10.30;;;;;;;24.61;59.13;101563.50;5112931;27;20040;-76
2022/05/17 09:53:44;;;;;;;14.60;10.90;;;;;;;24.94;60.95;101570.09;5118310;27;20046;-76
2022/05/17 09:56:12;;;;;;;17.15;10.73;;;;;;;25.48;56.09;101566.41;5119592;27;20051;-76
2022/05/17 09:58:41;;;;;;;15.02;9.95;;;;;;;25.90;56.36;101572.78;5120164;27;20250;-76
2022/05/17 10:01:13;;;;;;;15.85;10.98;;;;;;;25.98;56.30;101567.44;5112419;27;20059;-76
2022/05/17 10:03:41;;;;;;;14.13;10.40;;;;;;;26.12;52.58;101571.41;5113938;27;20043;-76
2022/05/17 10:06:14;;;;;;;12.32;9.73;;;;;;;26.00;52.64;101565.44;5112737;27;20116;-75
2022/05/17 10:08:44;;;;;;;13.55;10.45;;;;;;;25.90;54.08;101564.72;5112630;27;20605;-76
2022/05/17 10:11:19;;;;;;;17.20;10.45;;;;;;;25.38;54.31;101573.69;5112695;27;20161;-76
2022/05/17 10:14:01;;;;;;;14.88;10.50;;;;;;;25.61;54.85;101569.53;5112262;28;20040;-76
2022/05/17 10:16:36;;;;;;;14.27;10.57;;;;;;;25.77;55.97;101569.66;5112595;27;20035;-76
2022/05/17 10:19:07;;;;;;;16.38;9.98;;;;;;;25.42;55.70;101567.88;5112187;27;20063;-75
2022/05/17 10:21:38;;;;;;;14.35;9.93;;;;;;;25.15;54.88;101574.16;5111905;27;20089;-76
2022/05/17 10:24:14;;;;;;;16.92;10.45;;;;;;;25.44;56.15;101579.28;5112543;27;20126;-76
2022/05/17 10:26:46;;;;;;;13.00;10.38;;;;;;;25.49;54.93;101574.31;5129225;27;20047;-76
2022/05/17 10:29:21;;;;;;;21.08;10.88;;;;;;;25.35;56.28;101579.38;5131864;27;20047;-76
2022/05/17 10:31:57;;;;;;;13.85;9.65;;;;;;;25.16;56.63;101586.59;5132550;27;20047;-75
2022/05/17 10:34:34;;;;;;;17.38;10.88;;;;;;;25.06;56.13;101590.31;5131715;27;20041;-75
2022/05/17 10:37:05;;;;;;;15.75;9.30;;;;;;;25.10;56.07;101589.88;5112044;27;20117;-75
2022/05/17 10:39:38;;;;;;;15.00;8.20;;;;;;;25.07;54.51;101592.88;5110849;28;20099;-75
2022/05/17 10:42:05;;;;;;;12.10;8.85;;;;;;;25.37;55.32;101580.91;5099292;27;20130;-75
2022/05/17 10:44:39;;;;;;;17.35;9.02;;;;;;;25.46;54.34;101579.16;5110734;28;20043;-75
2022/05/17 10:47:14;;;;;;;14.15;8.20;;;;;;;25.03;55.96;101585.28;5108328;27;20064;-75
2022/05/17 10:50:04;;;;;;;13.35;8.10;;;;;;;24.68;55.75;101575.31;5110191;27;20445;-75
2022/05/17 10:52:39;;;;;;;12.38;7.55;;;;;;;24.42;57.00;101569.81;5110677;27;20040;-75
2022/05/17 10:55:13;;;;;;;16.60;9.35;;;;;;;24.53;57.72;101579.50;5108808;27;20058;-75
2022/05/17 10:57:51;;;;;;;12.93;8.30;;;;;;;24.45;57.43;101574.88;5108850;28;20074;-75
2022/05/17 11:00:23;;;;;;;13.55;8.00;;;;;;;24.42;56.38;101587.72;5110677;28;20043;-75
2022/05/17 11:03:10;;;;;;;9.63;6.32;;;;;;;24.80;56.44;101579.47;5110527;28;20097;-75
2022/05/17 11:05:48;;;;;;;11.02;6.95;;;;;;;25.46;58.77;101581.81;5110243;28;20158;-75
2022/05/17 11:08:21;;;;;;;9.93;6.30;;;;;;;26.19;54.96;101590.44;5110736;28;20483;-75
2022/05/17 11:10:59;;;;;;;13.35;7.05;;;;;;;26.81;52.69;101581.97;5110390;28;20039;-75
2022/05/17 11:13:31;;;;;;;18.17;6.80;;;;;;;25.44;53.36;101573.91;5102210;27;20104;-75
2022/05/17 11:16:06;;;;;;;9.68;5.60;;;;;;;25.41;52.36;101576.91;5130827;27;20053;-75
2022/05/17 11:18:53;;;;;;;8.65;6.10;;;;;;;25.45;53.76;101580.13;5110399;27;20036;-75
2022/05/17 11:21:24;;;;;;;7.10;4.97;;;;;;;25.57;54.22;101579.75;5110464;27;20052;-75
2022/05/17 11:23:54;;;;;;;8.73;5.30;;;;;;;25.75;51.32;101577.06;5110750;27;20634;-75
2022/05/17 11:26:57;;;;;;;7.90;5.47;;;;;;;25.93;53.72;101579.69;5109933;27;20039;-75
2022/05/17 11:29:48;;;;;;;7.05;5.72;;;;;;;25.32;54.15;101576.97;5104106;27;20097;-75